createdAt,value
2023-09-14T00:00:36.164Z,10.43
2023-09-14T00:03:04.276Z,10.68
2023-09-14T00:05:31.836Z,10.85
2023-09-14T00:07:59.353Z,11.15
2023-09-14T00:10:26.728Z,8.60
2023-09-14T00:12:54.164Z,10.30
2023-09-14T00:15:21.583Z,13.90
2023-09-14T00:17:49.015Z,11.02
2023-09-14T00:20:23.103Z,11.52
2023-09-14T00:22:51.045Z,9.70
2023-09-14T00:25:19.169Z,10.60
2023-09-14T00:27:46.670Z,11.88
2023-09-14T00:30:14.846Z,11.85
2023-09-14T00:32:43.541Z,11.02
2023-09-14T00:35:14.534Z,10.77
2023-09-14T00:37:42.411Z,14.30
2023-09-14T00:40:10.872Z,10.82
2023-09-14T00:42:45.223Z,13.65
2023-09-14T00:47:47.297Z,11.05
2023-09-14T00:50:16.473Z,11.65
2023-09-14T00:52:48.341Z,15.32
2023-09-14T00:55:18.766Z,12.35
2023-09-14T00:57:50.225Z,11.68
2023-09-14T01:00:17.921Z,11.30
2023-09-14T01:02:45.565Z,11.27
2023-09-14T01:05:16.275Z,10.68
2023-09-14T01:07:43.764Z,16.45
2023-09-14T01:10:11.533Z,20.65
2023-09-14T01:12:39.725Z,12.48
2023-09-14T01:15:20.872Z,11.05
2023-09-14T01:18:14.650Z,12.52
2023-09-14T01:20:53.916Z,10.95
2023-09-14T01:23:49.250Z,12.23
2023-09-14T01:26:16.924Z,13.07
2023-09-14T01:28:44.574Z,13.15
2023-09-14T01:31:12.322Z,13.18
2023-09-14T01:33:39.953Z,14.65
2023-09-14T01:36:11.824Z,15.57
2023-09-14T01:38:39.396Z,15.30
2023-09-14T01:41:06.740Z,18.17
2023-09-14T01:43:34.146Z,15.65
2023-09-14T01:46:02.554Z,17.38
2023-09-14T01:48:30.268Z,19.30
2023-09-14T01:50:57.667Z,16.70
2023-09-14T01:53:25.096Z,20.70
2023-09-14T01:55:52.543Z,19.73
2023-09-14T01:58:19.967Z,20.98
2023-09-14T02:00:47.417Z,18.92
2023-09-14T02:03:14.815Z,18.92
2023-09-14T02:05:42.219Z,18.88
2023-09-14T02:08:09.645Z,18.67
2023-09-14T02:10:36.981Z,18.55
2023-09-14T02:13:04.398Z,19.30
2023-09-14T02:15:31.891Z,19.70
2023-09-14T02:17:59.341Z,20.63
2023-09-14T02:20:27.089Z,21.67
2023-09-14T02:22:54.530Z,21.83
2023-09-14T02:25:21.918Z,19.58
2023-09-14T02:27:49.320Z,20.45
2023-09-14T02:30:16.769Z,19.25
2023-09-14T02:32:44.130Z,24.42
2023-09-14T02:35:11.650Z,21.65
2023-09-14T02:37:39.074Z,20.30
2023-09-14T02:40:09.737Z,19.52
2023-09-14T02:42:38.860Z,21.45
2023-09-14T02:45:06.850Z,24.63
2023-09-14T02:47:34.190Z,25.70
2023-09-14T02:50:01.581Z,24.13
2023-09-14T02:52:28.929Z,23.75
2023-09-14T02:54:56.460Z,21.45
2023-09-14T02:57:24.029Z,24.35
2023-09-14T02:59:54.854Z,22.88
2023-09-14T03:02:26.090Z,25.02
2023-09-14T03:04:53.576Z,20.88
2023-09-14T03:07:23.354Z,23.42
2023-09-14T03:09:53.958Z,26.48
2023-09-14T03:12:21.488Z,22.23
2023-09-14T03:14:48.884Z,20.65
2023-09-14T03:17:16.252Z,27.60
2023-09-14T03:19:43.986Z,30.95
2023-09-14T03:22:12.706Z,25.10
2023-09-14T03:24:40.222Z,23.35
2023-09-14T03:27:07.987Z,23.02
2023-09-14T03:29:35.381Z,24.52
2023-09-14T03:32:02.874Z,23.75
2023-09-14T03:34:30.297Z,30.17
2023-09-14T03:36:57.708Z,26.65
2023-09-14T03:39:25.407Z,27.05
2023-09-14T03:41:52.861Z,25.05
2023-09-14T03:44:20.237Z,26.52
2023-09-14T03:46:47.661Z,24.80
2023-09-14T03:49:15.178Z,32.58
2023-09-14T03:51:42.641Z,27.20
2023-09-14T03:54:10.182Z,26.90
2023-09-14T03:56:38.050Z,23.52
2023-09-14T03:59:05.469Z,30.40
2023-09-14T04:01:32.929Z,30.10
2023-09-14T04:04:00.789Z,31.33
2023-09-14T04:06:28.228Z,31.10
2023-09-14T04:08:55.612Z,27.85
2023-09-14T04:11:22.989Z,30.25
2023-09-14T04:13:50.392Z,29.17
2023-09-14T04:16:17.877Z,30.08
2023-09-14T04:18:48.006Z,28.27
2023-09-14T04:21:16.032Z,31.15
2023-09-14T04:23:46.309Z,31.60
2023-09-14T04:26:15.216Z,31.17
2023-09-14T04:28:42.690Z,28.50
2023-09-14T04:31:11.628Z,32.13
2023-09-14T04:33:42.624Z,33.35
2023-09-14T04:36:10.537Z,27.35
2023-09-14T04:38:42.985Z,30.98
2023-09-14T04:41:10.875Z,27.65
2023-09-14T04:43:38.357Z,28.52
2023-09-14T04:46:06.551Z,25.02
2023-09-14T04:48:34.473Z,28.83
2023-09-14T04:51:02.749Z,28.52
2023-09-14T04:53:30.149Z,28.05
2023-09-14T04:55:58.954Z,30.50
2023-09-14T04:58:27.169Z,32.70
2023-09-14T05:00:55.687Z,31.77
2023-09-14T05:03:23.891Z,32.97
2023-09-14T05:05:53.232Z,34.15
2023-09-14T05:08:21.371Z,31.75
2023-09-14T05:10:51.135Z,31.50
2023-09-14T05:13:19.754Z,34.80
2023-09-14T05:15:47.701Z,32.45
2023-09-14T05:18:15.914Z,34.63
2023-09-14T05:20:48.356Z,32.67
2023-09-14T05:23:15.828Z,32.80
2023-09-14T05:25:43.453Z,31.70
2023-09-14T05:28:11.140Z,33.90
2023-09-14T05:30:40.144Z,34.58
2023-09-14T05:33:10.848Z,36.55
2023-09-14T05:35:38.899Z,32.28
2023-09-14T05:38:06.677Z,28.23
2023-09-14T05:40:34.335Z,29.60
2023-09-14T05:43:02.295Z,34.88
2023-09-14T05:45:30.173Z,32.00
2023-09-14T05:47:58.751Z,33.40
2023-09-14T05:50:26.179Z,35.28
2023-09-14T05:52:56.330Z,31.63
2023-09-14T05:55:24.092Z,35.95
2023-09-14T05:57:51.681Z,37.78
2023-09-14T06:00:20.146Z,35.13
2023-09-14T06:02:52.611Z,32.75
2023-09-14T06:05:24.639Z,31.67
2023-09-14T06:07:54.748Z,17.10
2023-09-14T06:10:22.718Z,14.23
2023-09-14T06:12:51.575Z,14.15
2023-09-14T06:15:19.035Z,29.80
2023-09-14T06:17:48.132Z,38.30
2023-09-14T06:20:15.889Z,40.25
2023-09-14T06:22:43.661Z,24.73
2023-09-14T06:25:11.089Z,23.70
2023-09-14T06:27:38.602Z,28.42
2023-09-14T06:30:07.288Z,24.60
2023-09-14T06:32:34.731Z,26.33
2023-09-14T06:35:02.592Z,38.90
2023-09-14T06:37:30.099Z,36.55
2023-09-14T06:39:57.814Z,38.90
2023-09-14T06:42:25.323Z,32.17
2023-09-14T06:44:52.696Z,37.78
2023-09-14T06:47:20.094Z,33.05
2023-09-14T06:49:47.439Z,37.70
2023-09-14T06:52:14.896Z,37.45
2023-09-14T06:54:42.356Z,41.70
2023-09-14T06:57:09.804Z,42.22
2023-09-14T06:59:37.160Z,50.78
2023-09-14T07:02:04.849Z,44.40
2023-09-14T07:04:32.282Z,51.72
2023-09-14T07:06:59.778Z,41.38
2023-09-14T07:09:27.306Z,35.20
2023-09-14T07:11:54.739Z,35.75
2023-09-14T07:14:22.331Z,32.13
2023-09-14T07:16:49.850Z,35.25
2023-09-14T07:19:17.364Z,38.63
2023-09-14T07:21:44.806Z,35.40
2023-09-14T07:24:12.296Z,39.30
2023-09-14T07:26:40.749Z,43.58
2023-09-14T07:29:09.148Z,53.28
2023-09-14T07:31:37.318Z,37.15
2023-09-14T07:34:05.007Z,39.35
2023-09-14T07:36:33.064Z,43.90
2023-09-14T07:39:00.500Z,46.38
2023-09-14T07:41:27.973Z,47.38
2023-09-14T07:43:55.871Z,43.00
2023-09-14T07:46:23.408Z,43.58
2023-09-14T07:48:50.997Z,50.13
2023-09-14T07:51:18.368Z,47.72
2023-09-14T07:53:46.113Z,50.83
2023-09-14T07:56:14.497Z,45.10
2023-09-14T07:58:43.185Z,47.22
2023-09-14T08:01:10.720Z,44.88
2023-09-14T08:03:38.660Z,44.60
2023-09-14T08:06:06.241Z,45.78
2023-09-14T08:08:36.199Z,45.90
2023-09-14T08:11:03.657Z,56.50
2023-09-14T08:13:31.037Z,51.83
2023-09-14T08:15:58.692Z,51.40
2023-09-14T08:18:26.161Z,48.25
2023-09-14T08:20:53.790Z,49.58
2023-09-14T08:23:21.583Z,51.80
2023-09-14T08:25:49.145Z,47.05
2023-09-14T08:28:20.579Z,47.22
2023-09-14T08:30:48.827Z,50.13
2023-09-14T08:33:20.181Z,51.35
2023-09-14T08:35:48.314Z,56.70
2023-09-14T08:38:16.283Z,55.97
2023-09-14T08:40:47.059Z,52.33
2023-09-14T08:43:15.657Z,48.65
2023-09-14T08:45:43.425Z,46.90
2023-09-14T08:48:10.906Z,58.05
2023-09-14T08:50:40.243Z,54.17
2023-09-14T08:53:08.022Z,48.88
2023-09-14T08:55:36.916Z,43.88
2023-09-14T08:58:04.735Z,47.25
2023-09-14T09:00:32.550Z,50.17
2023-09-14T09:03:00.763Z,47.42
2023-09-14T09:05:28.992Z,48.67
2023-09-14T09:07:56.988Z,52.10
2023-09-14T09:10:28.961Z,50.53
2023-09-14T09:13:03.234Z,52.45
2023-09-14T09:15:37.799Z,51.05
2023-09-14T09:18:10.049Z,51.95
2023-09-14T09:20:39.062Z,47.28
2023-09-14T09:23:06.718Z,50.78
2023-09-14T09:25:50.997Z,44.85
2023-09-14T09:28:18.460Z,46.92
2023-09-14T09:30:46.223Z,50.95
2023-09-14T09:33:14.069Z,44.35
2023-09-14T09:35:42.736Z,46.58
2023-09-14T09:38:17.301Z,46.38
2023-09-14T09:40:46.238Z,45.78
2023-09-14T09:43:17.663Z,48.80
2023-09-14T09:45:45.843Z,46.65
2023-09-14T09:48:13.569Z,44.40
2023-09-14T09:50:41.051Z,47.45
2023-09-14T09:53:13.268Z,45.65
2023-09-14T09:55:43.116Z,49.58
2023-09-14T09:58:10.540Z,45.38
2023-09-14T10:00:40.270Z,47.30
2023-09-14T10:03:07.922Z,44.95
2023-09-14T10:05:39.544Z,46.15
2023-09-14T10:08:20.928Z,44.95
2023-09-14T10:10:52.506Z,44.95
2023-09-14T10:13:24.697Z,44.95
2023-09-14T10:15:54.464Z,47.90
2023-09-14T10:18:22.550Z,41.53
2023-09-14T10:20:53.817Z,43.45
2023-09-14T10:23:22.659Z,39.50
2023-09-14T10:25:51.646Z,45.95
2023-09-14T10:28:21.082Z,41.10
2023-09-14T10:30:48.800Z,40.97
2023-09-14T10:33:16.278Z,42.47
2023-09-14T10:35:44.391Z,46.17
2023-09-14T10:38:12.617Z,47.00
2023-09-14T10:40:40.523Z,42.50
2023-09-14T10:43:09.139Z,41.58
2023-09-14T10:45:41.293Z,38.58
2023-09-14T10:48:11.931Z,36.08
2023-09-14T10:50:39.349Z,38.95
2023-09-14T10:53:06.708Z,36.42
2023-09-14T10:55:36.435Z,47.80
2023-09-14T10:58:04.134Z,44.22
2023-09-14T11:03:22.388Z,43.75
2023-09-14T11:05:52.753Z,46.03
2023-09-14T11:08:21.181Z,36.97
2023-09-14T11:11:01.141Z,41.33
2023-09-14T11:13:36.581Z,38.47
2023-09-14T11:16:15.357Z,39.00
2023-09-14T11:18:48.654Z,34.67
2023-09-14T11:21:34.273Z,37.15
2023-09-14T11:24:05.534Z,35.08
2023-09-14T11:26:41.437Z,34.50
2023-09-14T11:29:09.722Z,28.98
2023-09-14T11:34:14.728Z,27.05
2023-09-14T11:36:44.691Z,24.65
2023-09-14T11:39:18.975Z,22.40
2023-09-14T11:41:52.879Z,26.60
2023-09-14T11:46:57.553Z,25.65
2023-09-14T11:49:30.496Z,22.92
2023-09-14T11:51:58.009Z,25.65
2023-09-14T11:54:32.206Z,20.45
2023-09-14T11:57:06.320Z,19.13
2023-09-14T11:59:34.115Z,16.58
2023-09-14T12:02:02.399Z,17.52
2023-09-14T12:04:31.016Z,19.50
2023-09-14T12:06:59.904Z,20.15
2023-09-14T12:09:40.183Z,19.38
2023-09-14T12:12:10.893Z,18.13
2023-09-14T12:14:42.442Z,19.50
2023-09-14T12:17:27.197Z,18.30
2023-09-14T12:19:59.790Z,21.80
2023-09-14T12:22:29.401Z,19.20
2023-09-14T12:24:56.898Z,15.57
2023-09-14T12:27:24.333Z,18.05
2023-09-14T12:29:51.740Z,29.10
2023-09-14T12:32:19.427Z,16.60
2023-09-14T12:34:46.874Z,19.80
2023-09-14T12:37:17.920Z,15.35
2023-09-14T12:39:52.532Z,20.58
2023-09-14T12:42:23.982Z,20.75
2023-09-14T12:44:53.825Z,21.73
2023-09-14T12:47:21.183Z,20.67
2023-09-14T12:49:48.591Z,23.88
2023-09-14T12:52:15.991Z,22.95
2023-09-14T12:54:44.156Z,21.30
2023-09-14T12:57:14.714Z,24.85
2023-09-14T13:00:21.741Z,16.58
2023-09-14T13:02:49.998Z,19.95
2023-09-14T13:05:21.737Z,23.80
2023-09-14T13:07:53.098Z,22.48
2023-09-14T13:10:24.757Z,22.25
2023-09-14T13:13:07.842Z,20.40
2023-09-14T13:15:35.525Z,24.42
2023-09-14T13:18:04.811Z,22.98
2023-09-14T13:20:33.436Z,23.23
2023-09-14T13:23:05.174Z,24.73
2023-09-14T13:25:32.992Z,24.58
2023-09-14T13:28:01.147Z,22.38
2023-09-14T13:30:28.650Z,27.10
2023-09-14T13:32:57.453Z,28.63
2023-09-14T13:35:25.372Z,23.15
2023-09-14T13:37:58.770Z,21.40
2023-09-14T13:40:27.421Z,22.50
2023-09-14T13:42:58.333Z,22.13
2023-09-14T13:45:30.489Z,23.30
2023-09-14T13:47:58.364Z,23.73
2023-09-14T13:50:26.107Z,22.92
2023-09-14T13:52:53.600Z,21.83
2023-09-14T13:55:21.326Z,24.02
2023-09-14T13:57:49.032Z,23.30
2023-09-14T14:00:18.659Z,20.13
2023-09-14T14:02:55.773Z,21.48
2023-09-14T14:05:23.311Z,22.17
2023-09-14T14:07:50.711Z,18.00
2023-09-14T14:10:18.101Z,19.08
2023-09-14T14:12:45.529Z,17.83
2023-09-14T14:15:13.487Z,18.00
2023-09-14T14:17:41.488Z,15.77
2023-09-14T14:20:10.234Z,17.48
2023-09-14T14:22:37.863Z,17.95
2023-09-14T14:25:05.751Z,17.10
2023-09-14T14:27:33.860Z,15.85
2023-09-14T14:30:01.479Z,18.95
2023-09-14T14:32:29.494Z,18.63
2023-09-14T14:34:57.171Z,20.38
2023-09-14T14:37:24.678Z,16.50
2023-09-14T14:39:54.905Z,23.23
2023-09-14T14:42:22.639Z,18.73
2023-09-14T14:44:50.374Z,17.00
2023-09-14T14:47:19.788Z,19.45
2023-09-14T14:49:48.000Z,18.92
2023-09-14T14:52:15.555Z,14.85
2023-09-14T14:54:43.151Z,15.45
2023-09-14T14:57:11.498Z,19.73
2023-09-14T14:59:39.440Z,14.27
2023-09-14T15:02:07.280Z,18.63
2023-09-14T15:04:35.661Z,20.20
2023-09-14T15:07:03.691Z,17.80
2023-09-14T15:09:31.636Z,14.77
2023-09-14T15:11:59.080Z,18.83
2023-09-14T15:14:26.465Z,19.55
2023-09-14T15:16:53.871Z,15.60
2023-09-14T15:19:21.993Z,17.73
2023-09-14T15:21:49.540Z,20.08
2023-09-14T15:24:17.074Z,19.30
2023-09-14T15:26:45.861Z,15.85
2023-09-14T15:29:13.430Z,18.70
2023-09-14T15:31:42.563Z,17.60
2023-09-14T15:34:10.273Z,17.63
2023-09-14T15:36:37.797Z,20.75
2023-09-14T15:39:05.193Z,18.17
2023-09-14T15:41:32.629Z,15.93
2023-09-14T15:44:00.055Z,19.15
2023-09-14T15:46:27.539Z,21.55
2023-09-14T15:48:57.709Z,17.40
2023-09-14T15:51:25.579Z,24.10
2023-09-14T15:53:53.155Z,17.60
2023-09-14T15:56:21.181Z,16.80
2023-09-14T15:58:54.730Z,17.55
2023-09-14T16:01:22.232Z,15.95
2023-09-14T16:03:49.984Z,18.70
2023-09-14T16:06:17.664Z,20.23
2023-09-14T16:08:45.455Z,17.92
2023-09-14T16:11:14.349Z,21.65
2023-09-14T16:13:41.715Z,17.45
2023-09-14T16:16:10.675Z,18.80
2023-09-14T16:18:38.189Z,22.90
2023-09-14T16:21:06.628Z,18.85
2023-09-14T16:23:34.818Z,21.13
2023-09-14T16:26:02.523Z,18.65
2023-09-14T16:28:29.955Z,19.05
2023-09-14T16:30:59.140Z,20.35
2023-09-14T16:33:26.691Z,24.02
2023-09-14T16:35:58.245Z,20.10
2023-09-14T16:38:25.870Z,22.30
2023-09-14T16:40:53.309Z,20.88
2023-09-14T16:43:20.768Z,25.00
2023-09-14T16:45:48.809Z,20.77
2023-09-14T16:48:16.355Z,23.42
2023-09-14T16:50:43.908Z,20.30
2023-09-14T16:53:11.328Z,17.73
2023-09-14T16:55:39.107Z,21.35
2023-09-14T16:58:06.589Z,22.45
2023-09-14T17:00:34.049Z,19.58
2023-09-14T17:03:01.544Z,19.02
2023-09-14T17:05:29.022Z,22.17
2023-09-14T17:07:56.422Z,19.67
2023-09-14T17:10:23.882Z,17.27
2023-09-14T17:12:51.277Z,24.67
2023-09-14T17:15:18.858Z,18.20
2023-09-14T17:17:46.322Z,19.83
2023-09-14T17:20:13.841Z,20.75
2023-09-14T17:22:41.185Z,22.58
2023-09-14T17:25:08.950Z,18.75
2023-09-14T17:27:36.734Z,20.60
2023-09-14T17:30:06.317Z,20.92
2023-09-14T17:32:33.753Z,19.25
2023-09-14T17:35:01.504Z,21.13
2023-09-14T17:37:28.867Z,18.05
2023-09-14T17:39:56.293Z,17.52
2023-09-14T17:42:23.705Z,20.77
2023-09-14T17:44:51.073Z,18.60
2023-09-14T17:47:18.524Z,19.60
2023-09-14T17:49:45.945Z,18.95
2023-09-14T17:52:13.434Z,18.63
2023-09-14T17:54:40.918Z,18.23
2023-09-14T17:57:08.288Z,17.52
2023-09-14T17:59:35.679Z,26.65
2023-09-14T18:02:04.883Z,18.45
2023-09-14T18:04:35.238Z,20.77
2023-09-14T18:07:03.360Z,18.70
2023-09-14T18:09:30.852Z,18.77
2023-09-14T18:11:59.375Z,26.20
2023-09-14T18:14:29.231Z,24.63
2023-09-14T18:17:00.695Z,19.88
2023-09-14T18:19:28.282Z,20.00
2023-09-14T18:21:56.216Z,19.50
2023-09-14T18:24:23.782Z,21.38
2023-09-14T18:26:51.134Z,19.65
2023-09-14T18:29:18.461Z,19.17
2023-09-14T18:31:46.609Z,22.45
2023-09-14T18:34:14.609Z,19.83
2023-09-14T18:36:42.294Z,20.23
2023-09-14T18:39:09.725Z,18.58
2023-09-14T18:41:37.144Z,20.85
2023-09-14T18:44:04.808Z,22.30
2023-09-14T18:46:32.396Z,20.15
2023-09-14T18:49:01.401Z,23.23
2023-09-14T18:51:28.893Z,21.83
2023-09-14T18:53:56.290Z,20.75
2023-09-14T18:56:23.616Z,21.75
2023-09-14T18:59:29.996Z,21.35
2023-09-14T19:01:39.032Z,23.48
2023-09-14T19:04:07.216Z,23.58
2023-09-14T19:06:34.691Z,22.25
2023-09-14T19:09:02.090Z,23.42
2023-09-14T19:11:29.417Z,25.80
2023-09-14T19:13:56.784Z,21.23
2023-09-14T19:16:24.264Z,22.20
2023-09-14T19:18:51.800Z,22.45
2023-09-14T19:21:19.137Z,24.80
2023-09-14T19:23:46.739Z,21.20
2023-09-14T19:26:14.094Z,21.85
2023-09-14T19:28:41.552Z,22.30
2023-09-14T19:31:15.433Z,21.73
2023-09-14T19:33:42.904Z,22.83
2023-09-14T19:36:10.292Z,19.92
2023-09-14T19:38:37.707Z,20.33
2023-09-14T19:41:05.423Z,26.50
2023-09-14T19:43:32.835Z,23.15
2023-09-14T19:46:00.346Z,19.95
2023-09-14T19:48:28.753Z,23.33
2023-09-14T19:50:56.369Z,22.88
2023-09-14T19:53:34.218Z,22.00
2023-09-14T19:56:07.866Z,21.60
2023-09-14T19:58:35.941Z,31.27
2023-09-14T20:01:05.415Z,27.27
2023-09-14T20:03:34.498Z,24.13
2023-09-14T20:06:02.075Z,23.30
2023-09-14T20:08:30.092Z,22.83
2023-09-14T20:10:58.019Z,21.95
2023-09-14T20:13:25.456Z,21.25
2023-09-14T20:15:53.202Z,22.67
2023-09-14T20:18:20.670Z,22.73
2023-09-14T20:20:48.025Z,22.13
2023-09-14T20:23:15.618Z,21.67
2023-09-14T20:25:43.026Z,24.27
2023-09-14T20:28:15.116Z,26.48
2023-09-14T20:30:44.423Z,24.25
2023-09-14T20:33:11.882Z,19.80
2023-09-14T20:35:39.288Z,18.15
2023-09-14T20:38:06.652Z,22.30
2023-09-14T20:40:34.020Z,19.02
2023-09-14T20:43:01.647Z,21.25
2023-09-14T20:45:29.567Z,18.35
2023-09-14T20:47:58.839Z,20.65
2023-09-14T20:50:27.168Z,18.27
2023-09-14T20:52:55.036Z,19.35
2023-09-14T20:55:24.311Z,17.45
2023-09-14T20:57:54.523Z,17.08
2023-09-14T21:00:22.170Z,17.30
2023-09-14T21:02:49.726Z,18.25
2023-09-14T21:05:17.982Z,17.23
2023-09-14T21:07:45.355Z,18.08
2023-09-14T21:10:12.808Z,22.48
2023-09-14T21:12:40.247Z,17.65
2023-09-14T21:15:07.932Z,17.75
2023-09-14T21:17:35.295Z,17.70
2023-09-14T21:20:02.834Z,15.18
2023-09-14T21:22:30.242Z,17.00
2023-09-14T21:24:59.478Z,15.05
2023-09-14T21:27:27.129Z,19.40
2023-09-14T21:29:54.490Z,18.55
2023-09-14T21:32:21.982Z,14.25
2023-09-14T21:34:49.587Z,18.05
2023-09-14T21:37:18.469Z,16.20
2023-09-14T21:39:46.112Z,18.23
2023-09-14T21:42:13.791Z,19.58
2023-09-14T21:44:41.209Z,17.27
2023-09-14T21:47:08.735Z,16.30
2023-09-14T21:49:40.765Z,17.10
2023-09-14T21:52:09.512Z,16.08
2023-09-14T21:54:37.593Z,18.77
2023-09-14T21:57:07.166Z,17.25
2023-09-14T21:59:35.282Z,17.67
2023-09-14T22:02:03.231Z,18.67
2023-09-14T22:04:30.962Z,17.27
2023-09-14T22:06:58.564Z,15.40
2023-09-14T22:09:27.590Z,15.23
2023-09-14T22:11:56.945Z,14.63
2023-09-14T22:14:24.322Z,15.07
2023-09-14T22:16:52.960Z,13.45
2023-09-14T22:19:21.986Z,16.08
2023-09-14T22:21:50.127Z,16.60
2023-09-14T22:24:17.588Z,12.95
2023-09-14T22:26:44.920Z,14.65
2023-09-14T22:29:13.675Z,14.52
2023-09-14T22:31:41.084Z,13.98
2023-09-14T22:34:08.512Z,15.05
2023-09-14T22:36:36.349Z,12.48
2023-09-14T22:39:09.415Z,16.38
2023-09-14T22:41:38.819Z,16.25
2023-09-14T22:44:07.066Z,14.30
2023-09-14T22:46:34.983Z,13.13
2023-09-14T22:49:02.712Z,13.65
2023-09-14T22:51:30.721Z,14.60
2023-09-14T22:54:01.026Z,15.02
2023-09-14T22:56:29.045Z,13.25
2023-09-14T22:58:56.396Z,13.85
2023-09-14T23:01:26.422Z,13.52
2023-09-14T23:03:54.573Z,13.50
2023-09-14T23:06:22.135Z,15.32
2023-09-14T23:08:49.883Z,12.43
2023-09-14T23:11:33.225Z,16.67
2023-09-14T23:14:00.652Z,12.77
2023-09-14T23:16:41.775Z,14.00
2023-09-14T23:19:10.251Z,13.75
2023-09-14T23:21:38.851Z,15.18
2023-09-14T23:24:12.819Z,15.48
2023-09-14T23:26:42.906Z,13.50
2023-09-14T23:29:12.161Z,14.68
2023-09-14T23:31:50.273Z,14.52
2023-09-14T23:34:18.462Z,13.05
2023-09-14T23:36:45.961Z,15.00
2023-09-14T23:39:13.785Z,16.58
2023-09-14T23:41:41.851Z,13.23
2023-09-14T23:44:19.463Z,15.02
2023-09-14T23:46:47.196Z,15.38
2023-09-14T23:49:15.262Z,14.88
2023-09-14T23:51:44.297Z,12.80
2023-09-14T23:54:12.385Z,14.50
2023-09-14T23:56:39.959Z,12.95
2023-09-14T23:59:09.498Z,13.15
